Time;durP1;ratioP1;P1;durP2;ratioP2;P2;SDS_P1;SDS_P2;PMS_P1;PMS_P2;Temp;Humidity;BMP_temperature;BMP_pressure;BME280_temperature;BME280_humidity;BME280_pressure;Samples;Min_cycle;Max_cycle;Signal;HPM_P1;HPM_P2
2021/10/29 00:00:06;;;;;;;17.40;14.70;;;5.40;99.90;;;;;;6266858;22;20376;-92
2021/10/29 00:02:31;;;;;;;17.10;14.10;;;5.40;99.90;;;;;;6262607;22;20166;-92
2021/10/29 00:04:58;;;;;;;14.10;12.53;;;5.50;99.90;;;;;;6271156;22;20446;-91
2021/10/29 00:07:24;;;;;;;15.80;11.93;;;5.40;99.90;;;;;;6277132;22;20204;-91
2021/10/29 00:09:50;;;;;;;15.60;12.60;;;5.40;99.90;;;;;;6267809;22;20782;-92
2021/10/29 00:12:18;;;;;;;17.40;13.80;;;5.40;99.90;;;;;;6264902;22;20467;-92
2021/10/29 00:14:44;;;;;;;20.03;13.50;;;5.40;99.90;;;;;;6264956;22;20939;-92
2021/10/29 00:17:11;;;;;;;16.10;12.90;;;5.40;99.90;;;;;;6266103;22;20432;-93
2021/10/29 00:19:37;;;;;;;14.67;12.03;;;5.40;99.90;;;;;;6265523;22;20389;-92
2021/10/29 00:22:04;;;;;;;13.07;11.67;;;5.40;99.90;;;;;;6266839;22;20472;-92
2021/10/29 00:24:32;;;;;;;13.97;11.80;;;5.40;99.90;;;;;;6265167;22;20442;-92
2021/10/29 00:26:58;;;;;;;16.03;12.90;;;5.30;99.90;;;;;;6263959;22;20830;-93
2021/10/29 00:29:25;;;;;;;16.53;13.10;;;5.20;99.90;;;;;;6265410;22;20405;-92
2021/10/29 00:31:51;;;;;;;16.90;11.73;;;5.20;99.90;;;;;;6265887;22;20166;-91
2021/10/29 00:34:17;;;;;;;15.37;11.93;;;5.10;99.90;;;;;;6264626;22;20864;-92
2021/10/29 00:36:43;;;;;;;13.77;11.90;;;5.10;99.90;;;;;;6265410;22;20400;-93
2021/10/29 00:39:09;;;;;;;14.70;12.40;;;5.10;99.90;;;;;;6265023;22;20404;-91
2021/10/29 00:41:35;;;;;;;13.13;11.73;;;5.10;99.90;;;;;;6263779;22;20472;-92
2021/10/29 00:44:04;;;;;;;12.70;11.07;;;5.10;99.90;;;;;;6262805;22;20488;-90
2021/10/29 00:46:30;;;;;;;13.53;10.40;;;5.10;99.90;;;;;;6262777;22;20509;-91
2021/10/29 00:48:56;;;;;;;13.77;10.40;;;5.10;99.90;;;;;;6264376;22;20477;-91
2021/10/29 00:51:22;;;;;;;12.13;10.40;;;5.20;99.90;;;;;;6265764;22;20400;-91
2021/10/29 00:53:49;;;;;;;15.63;13.23;;;5.20;99.90;;;;;;6261675;22;20173;-91
2021/10/29 00:56:15;;;;;;;14.33;12.20;;;5.20;99.90;;;;;;6265966;22;20472;-92
2021/10/29 00:58:41;;;;;;;15.20;12.37;;;5.00;99.90;;;;;;6265553;22;20404;-93
2021/10/29 01:01:07;;;;;;;14.70;12.37;;;5.00;99.90;;;;;;6264585;22;20423;-92
2021/10/29 01:03:37;;;;;;;13.43;11.30;;;5.10;99.90;;;;;;6264968;22;20401;-92
2021/10/29 01:06:03;;;;;;;17.73;12.60;;;5.10;99.90;;;;;;6264885;22;20495;-92
2021/10/29 01:08:31;;;;;;;16.40;10.90;;;5.20;99.90;;;;;;6267205;22;20760;-92
2021/10/29 01:10:59;;;;;;;15.60;11.60;;;5.20;99.90;;;;;;6264896;22;20424;-93
2021/10/29 01:13:26;;;;;;;14.97;11.23;;;5.10;99.90;;;;;;6264102;22;20392;-92
2021/10/29 01:15:54;;;;;;;13.33;10.47;;;4.90;99.90;;;;;;6268644;22;20388;-92
2021/10/29 01:18:20;;;;;;;15.20;10.80;;;4.80;99.90;;;;;;6266163;22;20645;-91
2021/10/29 01:20:46;;;;;;;15.23;11.20;;;4.60;99.90;;;;;;6264789;22;20491;-93
2021/10/29 01:23:12;;;;;;;12.63;10.60;;;4.60;99.90;;;;;;6265979;22;20175;-92
2021/10/29 01:25:40;;;;;;;13.30;10.40;;;4.60;99.90;;;;;;6267327;22;20397;-94
2021/10/29 01:28:12;;;;;;;12.43;10.60;;;4.50;99.90;;;;;;6266838;22;20211;-93
2021/10/29 01:30:39;;;;;;;24.03;12.87;;;4.50;99.90;;;;;;6266376;22;20398;-93
2021/10/29 01:33:06;;;;;;;24.93;13.83;;;4.50;99.90;;;;;;6267767;22;20482;-94
2021/10/29 01:35:31;;;;;;;20.17;14.20;;;4.40;99.90;;;;;;6284809;22;20396;-94
2021/10/29 01:37:58;;;;;;;18.10;12.30;;;4.40;99.90;;;;;;6282946;22;20411;-94
2021/10/29 01:40:24;;;;;;;15.97;12.10;;;4.40;99.90;;;;;;6270057;22;20294;-93
2021/10/29 01:42:49;;;;;;;13.40;10.77;;;4.50;99.90;;;;;;6266236;22;20439;-93
2021/10/29 01:45:17;;;;;;;15.10;10.90;;;4.50;99.90;;;;;;6264719;22;20558;-92
2021/10/29 01:47:43;;;;;;;17.37;11.10;;;4.50;99.90;;;;;;6266960;22;20181;-94
2021/10/29 01:50:09;;;;;;;12.53;10.67;;;4.50;99.90;;;;;;6265467;22;20398;-93
2021/10/29 01:52:36;;;;;;;17.73;11.33;;;4.50;99.90;;;;;;6265445;22;20395;-91
2021/10/29 01:55:04;;;;;;;16.30;11.27;;;4.50;99.90;;;;;;6266133;22;20745;-93
2021/10/29 01:57:30;;;;;;;14.90;11.30;;;4.50;99.90;;;;;;6264817;22;20376;-92
2021/10/29 01:59:55;;;;;;;14.57;10.80;;;4.50;99.90;;;;;;6264670;22;20525;-91
2021/10/29 02:02:21;;;;;;;13.80;10.93;;;4.50;99.90;;;;;;6269456;22;20165;-92
2021/10/29 02:04:47;;;;;;;18.20;12.20;;;4.50;99.90;;;;;;6266878;22;20176;-93
2021/10/29 02:07:12;;;;;;;32.77;10.90;;;4.60;99.90;;;;;;6266814;22;20191;-92
2021/10/29 02:09:38;;;;;;;18.20;10.50;;;4.70;99.90;;;;;;6266060;22;20218;-91
2021/10/29 02:12:04;;;;;;;22.90;10.17;;;4.60;99.90;;;;;;6266210;22;20597;-93
2021/10/29 02:14:30;;;;;;;37.00;10.63;;;4.50;99.90;;;;;;6265553;22;20168;-92
2021/10/29 02:16:56;;;;;;;12.97;9.77;;;4.50;99.90;;;;;;6266608;22;20424;-91
2021/10/29 02:19:22;;;;;;;10.63;9.30;;;4.40;99.90;;;;;;6266038;22;20164;-93
2021/10/29 02:21:53;;;;;;;11.33;8.33;;;4.30;99.90;;;;;;6266420;22;20406;-93
2021/10/29 02:24:19;;;;;;;18.83;8.33;;;4.20;99.90;;;;;;6265421;22;20237;-92
2021/10/29 02:26:45;;;;;;;52.77;11.03;;;4.20;99.90;;;;;;6268244;22;20421;-93
2021/10/29 02:29:11;;;;;;;29.83;9.73;;;4.10;99.90;;;;;;6264627;22;20413;-93
2021/10/29 02:31:40;;;;;;;43.97;9.13;;;4.10;99.90;;;;;;6266773;22;20867;-93
2021/10/29 02:34:06;;;;;;;14.23;8.80;;;4.10;99.90;;;;;;6266691;22;20580;-93
2021/10/29 02:36:31;;;;;;;20.80;8.73;;;4.10;99.90;;;;;;6265933;22;20398;-93
2021/10/29 02:38:58;;;;;;;16.60;8.67;;;4.10;99.90;;;;;;6267650;22;20163;-91
2021/10/29 02:41:24;;;;;;;13.23;8.80;;;4.10;99.90;;;;;;6266583;22;20178;-92
2021/10/29 02:43:50;;;;;;;10.07;8.17;;;4.20;99.90;;;;;;6265654;22;20397;-93
2021/10/29 02:46:16;;;;;;;12.53;8.73;;;4.20;99.90;;;;;;6266870;22;20486;-93
2021/10/29 02:48:42;;;;;;;12.07;9.77;;;4.20;99.90;;;;;;6266515;22;20190;-92
2021/10/29 02:51:08;;;;;;;13.57;9.23;;;4.20;99.90;;;;;;6264979;22;20425;-92
2021/10/29 02:53:36;;;;;;;9.00;8.10;;;4.20;99.90;;;;;;6265724;22;20391;-92
2021/10/29 02:56:03;;;;;;;23.10;10.37;;;4.10;99.90;;;;;;6266944;22;20389;-93
2021/10/29 02:58:31;;;;;;;11.43;9.00;;;4.00;99.90;;;;;;6265916;22;20399;-92
2021/10/29 03:00:58;;;;;;;11.97;8.53;;;3.90;99.90;;;;;;6267135;22;20394;-92
2021/10/29 03:03:24;;;;;;;9.83;8.80;;;4.10;99.90;;;;;;6265883;22;20382;-92
2021/10/29 03:05:52;;;;;;;15.60;9.50;;;4.20;99.90;;;;;;6281822;22;20399;-91
2021/10/29 03:08:18;;;;;;;13.33;8.00;;;4.20;99.90;;;;;;6273955;22;20437;-93
2021/10/29 03:10:43;;;;;;;10.07;8.60;;;4.20;99.90;;;;;;6268353;22;20895;-94
2021/10/29 03:13:09;;;;;;;21.33;8.30;;;4.30;99.90;;;;;;6265907;22;20174;-92
2021/10/29 03:15:35;;;;;;;17.13;8.87;;;4.30;99.90;;;;;;6267060;22;20579;-92
2021/10/29 03:18:01;;;;;;;9.30;8.30;;;4.10;99.90;;;;;;6265684;22;20162;-92
2021/10/29 03:20:27;;;;;;;11.00;8.73;;;4.10;99.90;;;;;;6266489;22;20393;-92
2021/10/29 03:22:53;;;;;;;15.60;8.87;;;4.20;99.90;;;;;;6265385;22;20396;-93
2021/10/29 03:25:19;;;;;;;14.00;9.10;;;4.30;99.90;;;;;;6264327;22;20750;-92
2021/10/29 03:27:45;;;;;;;19.10;9.50;;;4.30;99.90;;;;;;6261923;22;20189;-92
2021/10/29 03:30:11;;;;;;;33.27;10.40;;;4.20;99.90;;;;;;6265261;22;20424;-92
2021/10/29 03:32:37;;;;;;;28.13;10.43;;;4.10;99.90;;;;;;6263810;22;20690;-92
2021/10/29 03:35:03;;;;;;;17.00;10.30;;;3.90;99.90;;;;;;6263830;22;20741;-92
2021/10/29 03:42:54;;;;;;;16.07;10.00;;;3.70;99.90;;;;;;6266467;22;20472;-90
2021/10/29 03:45:20;;;;;;;19.30;10.63;;;4.00;99.90;;;;;;6267238;22;20390;-92
2021/10/29 03:47:53;;;;;;;16.00;8.87;;;4.10;99.90;;;;;;6265204;22;20483;-92
2021/10/29 03:50:25;;;;;;;15.63;9.03;;;4.00;99.90;;;;;;6263711;22;20727;-92
2021/10/29 03:55:32;;;;;;;19.07;10.10;;;3.90;99.90;;;;;;6265696;22;20496;-91
2021/10/29 03:57:57;;;;;;;19.37;8.77;;;3.80;99.90;;;;;;6263919;22;20854;-91
2021/10/29 04:00:28;;;;;;;19.83;8.77;;;3.80;99.90;;;;;;6265412;22;20449;-91
2021/10/29 04:02:59;;;;;;;13.63;8.10;;;3.70;99.90;;;;;;6263381;22;20218;-92
2021/10/29 04:05:25;;;;;;;17.13;9.63;;;3.70;99.90;;;;;;6265835;22;20401;-91
2021/10/29 04:07:51;;;;;;;12.97;8.00;;;3.80;99.90;;;;;;6265577;22;20693;-92
2021/10/29 04:10:16;;;;;;;18.40;8.20;;;3.60;99.90;;;;;;6267323;22;20413;-93
2021/10/29 04:12:42;;;;;;;8.20;6.90;;;3.60;99.90;;;;;;6266045;22;20186;-92
2021/10/29 04:15:08;;;;;;;12.17;7.90;;;3.60;99.90;;;;;;6266393;22;20165;-92
2021/10/29 04:17:34;;;;;;;9.53;8.07;;;3.60;99.90;;;;;;6267742;22;20638;-92
2021/10/29 04:20:00;;;;;;;8.50;7.47;;;3.50;99.90;;;;;;6266605;22;20493;-92
2021/10/29 04:22:25;;;;;;;17.37;7.50;;;3.50;99.90;;;;;;6265792;22;20297;-92
2021/10/29 04:24:51;;;;;;;18.03;8.03;;;3.40;99.90;;;;;;6266829;22;20589;-93
2021/10/29 04:27:22;;;;;;;7.80;7.00;;;3.30;99.90;;;;;;6267607;22;20185;-92
2021/10/29 04:29:50;;;;;;;7.27;6.60;;;3.30;99.90;;;;;;6266393;22;20166;-92
2021/10/29 04:32:17;;;;;;;7.90;7.20;;;3.40;99.90;;;;;;6267866;22;20397;-92
2021/10/29 04:34:42;;;;;;;7.10;6.40;;;3.40;99.90;;;;;;6275017;22;20418;-90
2021/10/29 04:37:08;;;;;;;7.70;7.00;;;3.40;99.90;;;;;;6257181;22;20405;-92
2021/10/29 04:39:35;;;;;;;8.57;6.37;;;3.50;99.90;;;;;;6269848;22;20683;-92
2021/10/29 04:42:01;;;;;;;8.50;7.50;;;3.50;99.90;;;;;;6265750;22;20166;-92
2021/10/29 04:44:27;;;;;;;7.30;6.60;;;3.30;99.90;;;;;;6268825;22;20482;-93
2021/10/29 04:46:53;;;;;;;8.00;7.20;;;3.40;99.90;;;;;;6268768;22;20472;-90
2021/10/29 04:49:19;;;;;;;8.93;7.50;;;3.40;99.90;;;;;;6267220;22;20171;-89
2021/10/29 04:51:45;;;;;;;8.00;7.17;;;3.30;99.90;;;;;;6268782;22;20337;-89
2021/10/29 04:54:10;;;;;;;9.20;8.30;;;3.10;99.90;;;;;;6269214;22;20154;-89
2021/10/29 04:56:36;;;;;;;8.80;7.20;;;3.10;99.90;;;;;;6268242;22;20724;-89
2021/10/29 04:59:02;;;;;;;7.83;7.03;;;3.10;99.90;;;;;;6268163;22;20167;-88
2021/10/29 05:01:28;;;;;;;8.23;7.43;;;3.10;99.90;;;;;;6269843;22;20454;-89
2021/10/29 05:03:53;;;;;;;8.53;7.77;;;3.30;99.90;;;;;;6267491;22;20162;-90
2021/10/29 05:06:19;;;;;;;8.70;7.90;;;3.20;99.90;;;;;;6266422;22;20253;-89
2021/10/29 05:08:44;;;;;;;8.27;7.50;;;3.00;99.90;;;;;;6268452;22;20198;-89
2021/10/29 05:11:10;;;;;;;8.60;7.13;;;2.90;99.90;;;;;;6269655;22;20170;-89
2021/10/29 05:13:36;;;;;;;13.03;11.23;;;3.00;99.90;;;;;;6268052;22;20585;-89
2021/10/29 05:16:02;;;;;;;11.50;10.30;;;3.10;99.90;;;;;;6269887;22;20732;-88
2021/10/29 05:18:28;;;;;;;10.93;8.80;;;3.20;99.90;;;;;;6268242;22;20400;-88
2021/10/29 05:20:56;;;;;;;9.33;8.40;;;3.20;99.90;;;;;;6267368;22;20389;-89
2021/10/29 05:23:22;;;;;;;8.50;7.67;;;3.20;99.90;;;;;;6269340;22;20151;-88
2021/10/29 05:25:48;;;;;;;6.33;5.73;;;3.30;99.90;;;;;;6264289;22;20827;-89
2021/10/29 05:28:14;;;;;;;7.03;6.40;;;3.20;99.90;;;;;;6262771;22;20535;-89
2021/10/29 05:30:39;;;;;;;6.37;5.80;;;3.20;99.90;;;;;;6264439;22;20245;-88
2021/10/29 05:33:07;;;;;;;6.93;6.23;;;3.10;99.90;;;;;;6268578;22;20158;-89
2021/10/29 05:35:33;;;;;;;9.33;8.33;;;3.10;99.90;;;;;;6268318;22;20155;-89
2021/10/29 05:37:58;;;;;;;16.13;11.17;;;3.00;99.90;;;;;;6268565;22;20439;-89
2021/10/29 05:40:27;;;;;;;66.83;35.13;;;2.90;99.90;;;;;;6267595;22;20223;-89
2021/10/29 05:42:52;;;;;;;30.73;17.70;;;2.90;99.90;;;;;;6270343;22;20158;-89
2021/10/29 05:45:28;;;;;;;;;;;;;;;;;;;;;
2021/10/29 05:48:00;;;;;;;21.27;14.80;;;3.00;99.90;;;;;;6268299;22;20691;-89
2021/10/29 05:50:29;;;;;;;22.40;16.00;;;2.90;99.90;;;;;;6270521;22;20419;-89
2021/10/29 05:52:54;;;;;;;21.10;14.73;;;2.90;99.90;;;;;;6268686;22;20404;-89
2021/10/29 05:55:20;;;;;;;37.70;24.80;;;2.90;99.90;;;;;;6268884;22;20396;-89
2021/10/29 05:57:49;;;;;;;28.40;18.10;;;2.90;99.90;;;;;;6268520;22;20166;-89
2021/10/29 06:00:17;;;;;;;25.23;16.60;;;2.90;99.90;;;;;;6268725;22;20748;-89
2021/10/29 06:02:43;;;;;;;18.00;13.53;;;2.80;99.90;;;;;;6269085;22;20866;-89
2021/10/29 06:05:09;;;;;;;13.43;11.33;;;2.80;99.90;;;;;;6278583;22;20389;-88
2021/10/29 06:07:36;;;;;;;11.40;8.97;;;2.90;99.90;;;;;;6277469;22;20428;-89
2021/10/29 06:10:05;;;;;;;10.20;8.77;;;3.00;99.90;;;;;;6268740;22;20439;-90
2021/10/29 06:12:32;;;;;;;11.70;9.23;;;3.00;99.90;;;;;;6268836;22;20791;-89
2021/10/29 06:14:58;;;;;;;10.87;8.30;;;2.90;99.90;;;;;;6269388;22;20389;-89
2021/10/29 06:17:27;;;;;;;13.17;8.87;;;2.90;99.90;;;;;;6267887;22;20480;-89
2021/10/29 06:19:52;;;;;;;11.83;9.40;;;2.90;99.90;;;;;;6265300;22;20151;-89
2021/10/29 06:24:47;;;;;;;23.80;15.10;;;2.90;99.90;;;;;;6269129;22;20478;-89
2021/10/29 06:29:44;;;;;;;9.83;8.83;;;3.20;99.90;;;;;;6268310;22;20770;-88
2021/10/29 06:32:10;;;;;;;10.80;9.70;;;3.20;99.90;;;;;;6268675;22;20385;-89
2021/10/29 06:34:36;;;;;;;12.00;10.80;;;3.30;99.90;;;;;;6267867;22;20156;-89
2021/10/29 06:37:04;;;;;;;14.20;11.60;;;3.60;99.90;;;;;;6268133;22;20384;-89
2021/10/29 06:39:30;;;;;;;10.53;8.63;;;3.70;99.90;;;;;;6266762;22;20404;-89
2021/10/29 06:41:57;;;;;;;9.23;8.30;;;3.60;99.90;;;;;;6266604;22;20401;-88
2021/10/29 07:00:44;;;;;;;11.10;8.77;;;4.60;99.90;;;;;;6268892;22;20383;-89
2021/10/29 07:41:44;;;;;;;8.40;7.20;;;6.80;99.90;;;;;;6269915;22;20388;-91
2021/10/29 07:44:18;;;;;;;8.97;7.27;;;6.90;99.90;;;;;;6268455;22;20393;-90
2021/10/29 07:47:01;;;;;;;7.60;6.90;;;7.00;99.90;;;;;;6267661;22;20844;-91
2021/10/29 07:49:29;;;;;;;7.73;7.00;;;6.90;99.90;;;;;;6270308;22;20389;-90
2021/10/29 07:51:57;;;;;;;9.47;8.10;;;7.30;99.90;;;;;;6269038;22;20393;-90
2021/10/29 07:54:24;;;;;;;8.77;7.90;;;7.60;99.90;;;;;;6266416;22;20722;-91
2021/10/29 07:56:50;;;;;;;9.37;7.30;;;7.60;99.90;;;;;;6268082;22;20393;-90
2021/10/29 07:59:21;;;;;;;9.17;8.27;;;7.90;99.90;;;;;;6268943;22;20386;-90
2021/10/29 08:01:51;;;;;;;11.87;10.70;;;8.20;99.90;;;;;;6268757;22;20394;-91
2021/10/29 08:04:21;;;;;;;10.23;9.20;;;8.30;99.90;;;;;;6269885;22;20381;-90
2021/10/29 08:06:48;;;;;;;11.73;10.20;;;8.20;99.90;;;;;;6267694;22;20400;-90
2021/10/29 08:09:17;;;;;;;12.03;10.53;;;8.30;99.90;;;;;;6267226;22;20503;-90
2021/10/29 08:11:45;;;;;;;13.43;11.30;;;8.40;99.90;;;;;;6269156;22;20538;-91
2021/10/29 08:14:11;;;;;;;17.93;14.10;;;8.60;99.90;;;;;;6268709;22;20842;-92
2021/10/29 08:16:37;;;;;;;12.83;11.50;;;8.60;99.90;;;;;;6267550;22;20514;-90
2021/10/29 08:19:03;;;;;;;14.03;11.50;;;8.90;99.90;;;;;;6269090;22;20158;-90
2021/10/29 08:21:31;;;;;;;15.17;12.47;;;9.20;99.90;;;;;;6269216;22;20168;-90
2021/10/29 08:23:59;;;;;;;10.90;9.80;;;9.60;99.90;;;;;;6267253;22;20374;-91
2021/10/29 08:26:25;;;;;;;9.40;8.37;;;9.90;99.90;;;;;;6267176;22;20401;-91
2021/10/29 08:28:50;;;;;;;9.70;8.70;;;9.80;99.90;;;;;;6269729;22;20725;-90
2021/10/29 08:31:21;;;;;;;10.60;9.30;;;9.70;99.90;;;;;;6267047;22;20581;-91
2021/10/29 08:33:47;;;;;;;10.43;8.80;;;9.90;99.90;;;;;;6267638;22;20154;-91
2021/10/29 08:36:19;;;;;;;11.20;10.20;;;10.20;99.90;;;;;;6267562;22;20749;-91
2021/10/29 08:38:46;;;;;;;9.47;8.57;;;10.40;99.90;;;;;;6270614;22;20468;-92
2021/10/29 08:41:12;;;;;;;11.20;9.57;;;10.20;99.90;;;;;;6269394;22;20497;-91
2021/10/29 08:43:41;;;;;;;11.63;10.60;;;10.10;99.90;;;;;;6268529;22;20943;-92
2021/10/29 08:46:12;;;;;;;9.83;8.83;;;9.90;99.90;;;;;;6264497;22;20417;-92
2021/10/29 08:48:41;;;;;;;11.13;10.07;;;10.20;99.90;;;;;;6267166;22;20436;-91
2021/10/29 08:51:07;;;;;;;11.77;10.20;;;10.70;99.90;;;;;;6268357;22;20402;-91
2021/10/29 08:53:36;;;;;;;11.10;10.00;;;11.10;99.90;;;;;;6265922;22;20863;-91
2021/10/29 08:56:04;;;;;;;11.57;10.40;;;11.50;99.90;;;;;;6266968;22;20687;-91
2021/10/29 08:58:34;;;;;;;13.00;11.67;;;11.70;99.90;;;;;;6267344;22;20927;-91
2021/10/29 09:01:05;;;;;;;11.37;10.17;;;12.00;99.90;;;;;;6265908;22;21690;-92
2021/10/29 09:03:41;;;;;;;12.10;10.90;;;12.40;99.90;;;;;;6267949;22;20396;-92
2021/10/29 09:17:10;;;;;;;12.27;11.03;;;12.40;99.90;;;;;;6267920;22;20406;-91
2021/10/29 09:31:23;;;;;;;12.27;10.20;;;12.50;99.90;;;;;;6268541;22;20461;-89
2021/10/29 09:31:29;;;;;;;11.30;10.10;;;12.30;99.90;;;;;;6269341;22;20466;-91
2021/10/29 09:33:57;;;;;;;10.30;9.20;;;11.90;99.90;;;;;;6264764;22;20933;-92
2021/10/29 09:36:31;;;;;;;9.90;9.00;;;12.10;99.90;;;;;;6266493;22;20400;-91
2021/10/29 09:38:59;;;;;;;10.47;9.47;;;11.90;99.90;;;;;;6267822;22;20855;-92
2021/10/29 09:41:25;;;;;;;12.47;11.17;;;12.00;99.90;;;;;;6267937;22;20531;-90
2021/10/29 09:44:03;;;;;;;11.67;9.97;;;11.80;99.90;;;;;;6262924;22;20475;-92
2021/10/29 09:46:40;;;;;;;10.67;9.57;;;11.70;99.90;;;;;;6260334;22;20190;-92
2021/10/29 09:49:15;;;;;;;12.17;11.00;;;11.70;99.90;;;;;;6263842;22;20444;-91
2021/10/29 09:57:25;;;;;;;10.70;9.70;;;11.20;99.90;;;;;;6264088;22;20866;-93
2021/10/29 09:59:56;;;;;;;10.40;9.30;;;11.70;99.90;;;;;;6262087;22;20385;-92
2021/10/29 10:02:24;;;;;;;11.20;10.00;;;11.90;99.90;;;;;;6263019;22;20460;-92
2021/10/29 10:04:55;;;;;;;11.43;10.23;;;12.10;99.90;;;;;;6260010;22;20722;-92
2021/10/29 10:07:23;;;;;;;10.87;9.77;;;11.90;99.90;;;;;;6261158;22;20428;-91
2021/10/29 10:09:57;;;;;;;10.97;9.87;;;12.20;99.90;;;;;;6262758;22;20416;-92
2021/10/29 10:12:27;;;;;;;13.37;10.20;;;12.70;99.90;;;;;;6261179;22;20401;-92
2021/10/29 10:14:54;;;;;;;11.37;10.27;;;12.70;99.90;;;;;;6260736;22;20400;-92
2021/10/29 10:17:31;;;;;;;;;;;;;;;;;;;;;
2021/10/29 10:19:59;;;;;;;10.70;9.73;;;12.60;99.90;;;;;;6262506;22;20377;-92
2021/10/29 10:22:27;;;;;;;10.80;9.83;;;12.80;99.90;;;;;;6264230;22;20867;-92
2021/10/29 10:25:07;;;;;;;11.57;10.37;;;13.30;99.90;;;;;;6262473;22;20407;-92
2021/10/29 10:28:18;;;;;;;10.97;9.87;;;13.30;99.90;;;;;;6262456;22;20432;-91
2021/10/29 10:47:14;;;;;;;12.17;10.57;;;14.70;99.90;;;;;;6263722;22;20389;-91
2021/10/29 10:49:52;;;;;;;11.10;10.00;;;15.10;99.20;;;;;;6262487;22;20401;-90
2021/10/29 10:52:23;;;;;;;12.47;11.30;;;15.10;98.70;;;;;;6262750;22;20403;-90
2021/10/29 10:55:07;;;;;;;11.60;10.60;;;15.00;99.00;;;;;;6261684;22;20462;-91
2021/10/29 11:01:03;;;;;;;11.90;10.23;;;15.40;98.70;;;;;;6264426;22;20891;-92
2021/10/29 11:03:52;;;;;;;11.10;10.10;;;15.50;98.30;;;;;;6261180;22;20393;-91
2021/10/29 11:07:01;;;;;;;11.20;10.20;;;15.80;98.80;;;;;;6264924;22;20408;-90
2021/10/29 11:10:10;;;;;;;12.20;10.90;;;16.60;97.80;;;;;;6262369;22;20542;-92
2021/10/29 11:12:42;;;;;;;14.47;11.10;;;16.40;97.60;;;;;;6264325;22;20788;-91
2021/10/29 11:15:23;;;;;;;11.33;10.23;;;16.00;97.60;;;;;;6262888;22;20432;-91
2021/10/29 11:18:00;;;;;;;11.77;10.70;;;15.90;98.50;;;;;;6261356;22;20808;-91
2021/10/29 11:23:06;;;;;;;12.67;11.43;;;16.60;98.40;;;;;;6264390;22;20403;-91
2021/10/29 11:25:48;;;;;;;11.90;10.80;;;16.70;97.80;;;;;;6262309;22;20499;-92
2021/10/29 11:28:14;;;;;;;10.90;9.90;;;16.40;97.60;;;;;;6261695;22;20470;-91
2021/10/29 11:30:41;;;;;;;12.43;11.20;;;16.60;97.60;;;;;;6261961;22;20409;-91
2021/10/29 11:33:08;;;;;;;11.30;10.40;;;16.50;98.90;;;;;;6263100;22;20443;-91
2021/10/29 11:35:36;;;;;;;11.73;10.70;;;16.70;97.60;;;;;;6264570;22;20426;-91
2021/10/29 11:38:05;;;;;;;10.63;9.73;;;17.20;97.40;;;;;;6264641;22;20393;-91
2021/10/29 11:40:35;;;;;;;11.83;10.73;;;17.40;96.50;;;;;;6263820;22;20415;-91
2021/10/29 11:43:01;;;;;;;12.80;11.67;;;17.50;96.20;;;;;;6262820;22;20414;-92
2021/10/29 11:45:35;;;;;;;11.77;10.73;;;17.80;96.40;;;;;;6264957;22;20389;-91
2021/10/29 11:48:03;;;;;;;11.43;10.33;;;18.50;95.00;;;;;;6262679;22;21067;-92
2021/10/29 11:50:29;;;;;;;11.90;10.63;;;19.90;93.90;;;;;;6264454;22;20744;-91
2021/10/29 11:52:57;;;;;;;10.60;9.70;;;20.10;91.90;;;;;;6264062;22;20415;-90
2021/10/29 11:55:40;;;;;;;12.10;11.00;;;20.10;92.00;;;;;;6261920;22;20401;-92
2021/10/29 11:58:23;;;;;;;10.40;9.40;;;19.60;92.50;;;;;;6261496;22;20870;-92
2021/10/29 12:06:16;;;;;;;10.90;9.80;;;21.50;88.00;;;;;;6282666;22;20383;-91
2021/10/29 12:08:42;;;;;;;12.67;10.40;;;21.90;86.40;;;;;;6264339;22;20893;-91
2021/10/29 12:11:09;;;;;;;9.90;8.90;;;22.60;82.80;;;;;;6262388;22;20688;-92
2021/10/29 12:13:43;;;;;;;11.53;10.43;;;23.00;83.80;;;;;;6261663;22;20241;-92
2021/10/29 12:16:18;;;;;;;9.67;8.77;;;23.90;78.20;;;;;;6259609;22;20791;-91
2021/10/29 12:18:55;;;;;;;10.43;9.53;;;23.00;77.50;;;;;;6262795;22;20384;-91
2021/10/29 12:21:23;;;;;;;9.57;8.67;;;22.90;78.50;;;;;;6261942;22;20879;-91
2021/10/29 12:23:51;;;;;;;10.00;9.10;;;23.90;76.00;;;;;;6260343;22;20393;-91
2021/10/29 12:26:19;;;;;;;10.93;9.47;;;24.60;72.90;;;;;;6261566;22;20401;-91
2021/10/29 12:28:49;;;;;;;9.63;8.73;;;25.30;70.70;;;;;;6261751;22;20515;-91
2021/10/29 12:31:25;;;;;;;10.00;9.10;;;26.00;68.50;;;;;;6261899;22;20388;-92
2021/10/29 13:02:00;;;;;;;11.10;10.00;;;21.30;75.10;;;;;;6263017;22;20640;-92
2021/10/29 13:04:42;;;;;;;8.87;8.17;;;21.30;77.30;;;;;;6260445;22;20413;-91
2021/10/29 13:07:11;;;;;;;8.73;7.97;;;21.20;75.50;;;;;;6258499;22;20412;-92
2021/10/29 13:09:41;;;;;;;9.40;8.60;;;21.10;77.80;;;;;;6261667;22;20416;-91
2021/10/29 13:12:18;;;;;;;9.23;8.43;;;20.60;81.20;;;;;;6263281;22;20385;-92
2021/10/29 13:14:52;;;;;;;9.07;8.37;;;20.20;77.90;;;;;;6261567;22;20431;-92
2021/10/29 13:17:28;;;;;;;8.80;8.00;;;19.90;78.10;;;;;;6261365;22;20406;-92
2021/10/29 13:52:37;;;;;;;6.87;6.17;;;17.80;83.00;;;;;;6259489;22;20384;-91
2021/10/29 14:24:27;;;;;;;6.90;6.30;;;15.90;90.50;;;;;;6270035;22;20391;-93
2021/10/29 14:30:24;;;;;;;6.80;6.13;;;15.70;90.40;;;;;;6267356;22;20388;-95
2021/10/29 14:33:07;;;;;;;6.40;5.80;;;15.90;91.00;;;;;;6266450;22;20392;-94
2021/10/29 14:35:44;;;;;;;5.90;5.33;;;16.00;90.90;;;;;;6265731;22;20487;-94
2021/10/29 14:38:31;;;;;;;7.60;6.23;;;15.90;91.10;;;;;;6265194;22;20412;-95
2021/10/29 14:41:02;;;;;;;5.93;5.43;;;16.00;91.00;;;;;;6266498;22;20396;-94
2021/10/29 14:43:33;;;;;;;7.50;5.50;;;16.00;90.60;;;;;;6266788;22;20871;-94
2021/10/29 14:46:12;;;;;;;5.27;4.77;;;15.90;88.70;;;;;;6270251;22;20483;-94
2021/10/29 15:02:17;;;;;;;7.13;4.77;;;15.20;93.70;;;;;;6265822;22;20985;-94
2021/10/29 15:05:05;;;;;;;5.87;4.00;;;14.90;95.60;;;;;;6274071;22;20739;-94
2021/10/29 15:30:51;;;;;;;4.30;3.90;;;13.60;99.90;;;;;;6262160;22;20443;-92
2021/10/29 15:51:21;;;;;;;3.10;2.83;;;12.20;99.90;;;;;;6262553;22;20392;-92
2021/10/29 15:53:46;;;;;;;4.00;3.10;;;12.00;99.90;;;;;;6260149;22;20169;-93
2021/10/29 15:56:26;;;;;;;7.13;4.53;;;11.90;99.90;;;;;;6260975;22;20397;-92
2021/10/29 16:03:58;;;;;;;5.17;3.70;;;11.40;99.90;;;;;;6263102;22;20385;-93
2021/10/29 16:17:21;;;;;;;7.47;5.60;;;10.70;99.90;;;;;;6263206;22;20396;-92
2021/10/29 16:19:47;;;;;;;5.60;4.27;;;10.60;99.90;;;;;;6260867;22;20405;-92
2021/10/29 16:22:28;;;;;;;4.57;3.77;;;10.50;99.90;;;;;;6259707;22;20162;-93
2021/10/29 16:25:01;;;;;;;6.13;4.20;;;10.30;99.90;;;;;;6259242;22;20416;-92
2021/10/29 16:27:37;;;;;;;4.43;3.93;;;10.20;99.90;;;;;;6259918;22;20779;-92
2021/10/29 16:30:03;;;;;;;6.67;4.57;;;10.10;99.90;;;;;;6255414;22;20396;-93
2021/10/29 16:32:50;;;;;;;9.03;5.10;;;9.90;99.90;;;;;;6260037;22;20397;-94
2021/10/29 16:35:16;;;;;;;4.73;4.33;;;9.80;99.90;;;;;;6270982;22;20389;-91
2021/10/29 16:37:42;;;;;;;6.27;4.20;;;9.80;99.90;;;;;;6281649;22;20427;-93
2021/10/29 16:40:08;;;;;;;7.07;4.73;;;9.80;99.90;;;;;;6270225;22;20385;-93
2021/10/29 16:42:35;;;;;;;8.23;5.50;;;9.80;99.90;;;;;;6259147;22;20432;-91
2021/10/29 16:45:00;;;;;;;6.03;5.50;;;9.80;99.90;;;;;;6259213;22;20400;-90
2021/10/29 16:47:28;;;;;;;7.53;5.10;;;9.60;99.90;;;;;;6257848;22;20721;-92
2021/10/29 16:49:53;;;;;;;8.13;5.07;;;9.60;99.90;;;;;;6258520;22;20197;-92
2021/10/29 16:52:19;;;;;;;5.50;4.97;;;9.60;99.90;;;;;;6260951;22;20397;-91
2021/10/29 16:54:45;;;;;;;6.20;5.47;;;9.40;99.90;;;;;;6257565;22;20601;-91
2021/10/29 16:57:11;;;;;;;6.87;5.37;;;9.50;99.90;;;;;;6257781;22;21076;-90
2021/10/29 16:59:36;;;;;;;8.47;5.10;;;9.40;99.90;;;;;;6260279;22;20181;-89
2021/10/29 17:02:11;;;;;;;6.27;5.30;;;9.30;99.90;;;;;;6259261;22;20460;-89
2021/10/29 17:04:37;;;;;;;8.03;6.33;;;9.30;99.90;;;;;;6258040;22;20176;-89
2021/10/29 17:07:03;;;;;;;6.03;5.50;;;9.20;99.90;;;;;;6255468;22;20974;-88
2021/10/29 17:09:28;;;;;;;6.90;5.60;;;9.30;99.90;;;;;;6256881;22;20190;-88
2021/10/29 17:11:55;;;;;;;7.37;6.63;;;9.30;99.90;;;;;;6256142;22;20174;-88
2021/10/29 17:14:20;;;;;;;7.90;7.10;;;9.20;99.90;;;;;;6257402;22;20162;-88
2021/10/29 17:16:47;;;;;;;7.97;7.00;;;9.00;99.90;;;;;;6259489;22;20761;-89
2021/10/29 17:19:13;;;;;;;8.63;7.60;;;9.00;99.90;;;;;;6258239;22;20212;-88
2021/10/29 17:21:39;;;;;;;12.63;10.30;;;9.00;99.90;;;;;;6259321;22;20507;-88
2021/10/29 17:24:04;;;;;;;10.50;9.10;;;9.50;99.90;;;;;;6262478;22;20389;-89
2021/10/29 17:26:32;;;;;;;11.43;8.87;;;9.70;99.90;;;;;;6262928;22;20155;-89
2021/10/29 17:28:59;;;;;;;11.30;10.10;;;9.80;99.90;;;;;;6261833;22;20787;-89
2021/10/29 17:31:25;;;;;;;10.03;8.90;;;9.80;99.90;;;;;;6261354;22;20770;-89
2021/10/29 17:33:51;;;;;;;12.70;10.50;;;9.60;99.90;;;;;;6264051;22;20387;-88
2021/10/29 17:36:17;;;;;;;11.87;10.30;;;9.60;99.90;;;;;;6261112;22;20158;-89
2021/10/29 17:38:44;;;;;;;15.83;10.73;;;9.50;99.90;;;;;;6264443;22;20614;-88